Time;durP1;ratioP1;P1;durP2;ratioP2;P2;SDS_P1;SDS_P2;PMS_P1;PMS_P2;Temp;Humidity;BMP_temperature;BMP_pressure;BME280_temperature;BME280_humidity;BME280_pressure;Samples;Min_cycle;Max_cycle;Signal;HPM_P1;HPM_P2
2022/12/03 00:00:04;;;;;;;;;;;;;;;4.99;74.46;102919.91;4878484;29;4812;-86
2022/12/03 00:02:30;;;;;;;;;;;;;;;5.00;74.33;102918.09;4878156;29;4707;-86
2022/12/03 00:04:57;;;;;;;;;;;;;;;5.00;74.29;102905.59;4877582;29;4607;-86
2022/12/03 00:07:23;;;;;;;;;;;;;;;4.97;74.46;102902.31;4861150;29;4642;-86
2022/12/03 00:09:50;;;;;;;;;;;;;;;5.03;74.25;102903.63;4877598;29;4632;-86
2022/12/03 00:12:17;;;;;;;;;;;;;;;5.05;74.22;102901.69;4877075;29;4741;-85
2022/12/03 00:14:43;;;;;;;;;;;;;;;5.01;74.36;102898.44;4862721;29;4718;-86
2022/12/03 00:17:10;;;;;;;;;;;;;;;5.00;74.51;102904.75;4877490;29;4615;-87
2022/12/03 00:19:36;;;;;;;;;;;;;;;5.03;74.35;102904.50;4863451;29;4659;-86
2022/12/03 00:22:03;;;;;;;;;;;;;;;4.97;74.65;102899.63;4879349;29;4565;-86
2022/12/03 00:24:29;;;;;;;;;;;;;;;4.95;74.61;102907.78;4874773;29;4410;-86
2022/12/03 00:26:56;;;;;;;;;;;;;;;4.97;74.54;102900.50;4881116;29;4589;-86
2022/12/03 00:29:22;;;;;;;;;;;;;;;5.01;74.39;102903.75;4864224;29;4672;-87
2022/12/03 00:31:49;;;;;;;;;;;;;;;5.04;74.15;102903.50;4878479;29;3884;-87
2022/12/03 00:34:15;;;;;;;;;;;;;;;5.08;74.09;102904.09;4878301;29;4659;-85
2022/12/03 00:36:42;;;;;;;;;;;;;;;5.05;74.13;102896.34;4879081;29;4636;-86
2022/12/03 00:39:08;;;;;;;;;;;;;;;5.00;74.37;102892.25;4875057;29;4746;-85
2022/12/03 00:41:35;;;;;;;;;;;;;;;4.97;74.47;102895.16;4876927;29;4597;-86
2022/12/03 00:44:01;;;;;;;;;;;;;;;4.96;74.51;102892.59;4879588;29;4721;-87
2022/12/03 00:46:28;;;;;;;;;;;;;;;4.90;74.70;102883.28;4862438;29;4666;-85
2022/12/03 00:48:54;;;;;;;;;;;;;;;4.91;74.87;102887.66;4877444;29;4607;-88
2022/12/03 00:51:21;;;;;;;;;;;;;;;4.95;74.55;102883.75;4863060;29;4625;-87
2022/12/03 00:53:48;;;;;;;;;;;;;;;4.92;74.78;102888.50;4860536;29;4797;-86
2022/12/03 00:56:14;;;;;;;;;;;;;;;4.94;74.78;102897.22;4879251;29;4608;-87
2022/12/03 00:58:41;;;;;;;;;;;;;;;4.96;74.51;102888.09;4877139;29;4672;-86
2022/12/03 01:01:07;;;;;;;;;;;;;;;4.95;74.60;102889.09;4864240;29;4308;-86
2022/12/03 01:03:34;;;;;;;;;;;;;;;4.94;74.62;102891.88;4880631;29;4588;-85
2022/12/03 01:06:00;;;;;;;;;;;;;;;4.90;74.81;102890.44;4873811;29;4626;-86
2022/12/03 01:08:27;;;;;;;;;;;;;;;4.93;74.81;102892.84;4873624;29;4551;-86
2022/12/03 01:10:53;;;;;;;;;;;;;;;4.95;74.47;102889.09;4887157;29;4684;-87
2022/12/03 01:13:20;;;;;;;;;;;;;;;5.05;74.29;102889.16;4886688;29;4579;-87
2022/12/03 01:15:46;;;;;;;;;;;;;;;4.96;74.62;102896.13;4885567;29;4558;-87
2022/12/03 01:18:13;;;;;;;;;;;;;;;4.95;74.63;102891.75;4873424;29;4648;-86
2022/12/03 01:20:39;;;;;;;;;;;;;;;5.01;74.30;102891.25;4889507;29;4661;-85
2022/12/03 01:23:06;;;;;;;;;;;;;;;4.99;74.33;102885.19;4867137;29;5013;-86
2022/12/03 01:25:33;;;;;;;;;;;;;;;4.95;74.56;102881.06;4890078;29;4653;-87
2022/12/03 01:27:59;;;;;;;;;;;;;;;4.93;74.65;102883.00;4870535;29;4796;-86
2022/12/03 01:30:26;;;;;;;;;;;;;;;4.88;74.96;102884.38;4868631;29;4845;-87
2022/12/03 01:32:51;;;;;;;;;;;;;;;4.93;74.68;102877.69;4888043;29;4641;-87
2022/12/03 01:35:18;;;;;;;;;;;;;;;4.99;74.47;102882.50;4870179;29;4588;-86
2022/12/03 01:37:44;;;;;;;;;;;;;;;4.94;74.54;102881.19;4889355;29;4726;-87
2022/12/03 01:40:11;;;;;;;;;;;;;;;4.93;74.45;102880.34;4884524;29;4692;-86
2022/12/03 01:42:37;;;;;;;;;;;;;;;4.92;74.66;102885.81;4888044;29;4579;-86
2022/12/03 01:45:04;;;;;;;;;;;;;;;4.86;74.65;102879.16;4874619;29;4568;-86
2022/12/03 01:47:30;;;;;;;;;;;;;;;4.95;74.45;102872.22;4886846;29;4535;-86
2022/12/03 01:49:57;;;;;;;;;;;;;;;4.96;74.45;102874.75;4890039;29;5293;-86
2022/12/03 01:52:24;;;;;;;;;;;;;;;4.90;74.69;102874.41;4869558;29;4708;-86
2022/12/03 01:54:50;;;;;;;;;;;;;;;5.00;74.42;102878.88;4884832;29;4664;-86
2022/12/03 01:57:17;;;;;;;;;;;;;;;4.99;74.26;102870.97;4888860;29;4531;-86
2022/12/03 01:59:43;;;;;;;;;;;;;;;4.90;74.61;102869.91;4879365;29;4598;-86
2022/12/03 02:02:10;;;;;;;;;;;;;;;4.87;74.84;102864.81;4867039;29;4438;-86
2022/12/03 02:04:44;;;;;;;;;;;;;;;4.95;74.72;102870.41;4886219;29;4735;-86
2022/12/03 02:07:12;;;;;;;;;;;;;;;4.99;74.38;102874.50;4871582;29;4547;-86
2022/12/03 02:09:39;;;;;;;;;;;;;;;5.01;74.14;102871.72;4888725;29;4855;-86
2022/12/03 02:12:05;;;;;;;;;;;;;;;5.02;74.31;102868.06;4888076;29;4966;-86
2022/12/03 02:14:32;;;;;;;;;;;;;;;5.11;73.93;102869.97;4884784;29;4633;-87
2022/12/03 02:16:58;;;;;;;;;;;;;;;4.98;74.45;102875.47;4888319;29;4719;-86
2022/12/03 02:19:25;;;;;;;;;;;;;;;5.00;74.33;102870.03;4871180;29;4636;-86
2022/12/03 02:21:51;;;;;;;;;;;;;;;4.93;74.57;102879.50;4889005;29;4718;-86
2022/12/03 02:24:18;;;;;;;;;;;;;;;5.04;74.22;102882.16;4885243;29;4487;-86
2022/12/03 02:26:44;;;;;;;;;;;;;;;5.10;73.89;102886.13;4886882;29;5128;-86
2022/12/03 02:29:11;;;;;;;;;;;;;;;5.05;74.06;102883.81;4884229;29;4528;-86
2022/12/03 02:31:37;;;;;;;;;;;;;;;5.03;74.15;102885.81;4857846;29;4238;-86
2022/12/03 02:34:04;;;;;;;;;;;;;;;5.11;73.98;102883.31;4854369;29;4503;-85
2022/12/03 02:36:31;;;;;;;;;;;;;;;5.18;73.63;102883.69;4857255;29;4642;-86
2022/12/03 02:38:57;;;;;;;;;;;;;;;5.12;74.03;102879.69;4870035;29;4423;-86
2022/12/03 02:44:08;;;;;;;;;;;;;;;5.15;73.63;102882.13;4874178;29;4486;-86
2022/12/03 02:46:35;;;;;;;;;;;;;;;5.14;73.81;102884.91;4855719;29;4355;-87
2022/12/03 02:49:01;;;;;;;;;;;;;;;5.15;73.92;102883.94;4855309;29;4665;-85
2022/12/03 02:51:28;;;;;;;;;;;;;;;5.12;73.90;102887.72;4872457;29;4788;-87
2022/12/03 02:53:55;;;;;;;;;;;;;;;5.15;73.88;102892.78;4872304;29;4482;-85
2022/12/03 02:56:21;;;;;;;;;;;;;;;5.18;73.77;102889.03;4870239;29;4581;-85
2022/12/03 02:58:48;;;;;;;;;;;;;;;5.12;73.83;102885.03;4872850;29;4550;-86
2022/12/03 03:01:15;;;;;;;;;;;;;;;5.21;73.58;102892.28;4872619;29;4451;-85
2022/12/03 03:03:42;;;;;;;;;;;;;;;5.08;74.18;102883.56;4858200;29;4522;-85
2022/12/03 03:06:08;;;;;;;;;;;;;;;5.13;73.77;102886.72;4856306;29;4451;-84
2022/12/03 03:08:35;;;;;;;;;;;;;;;5.27;73.44;102888.25;4870731;29;4540;-87
2022/12/03 03:11:01;;;;;;;;;;;;;;;5.34;72.99;102891.25;4875325;29;4636;-87
2022/12/03 03:13:28;;;;;;;;;;;;;;;5.29;73.43;102888.97;4857087;29;4570;-85
2022/12/03 03:15:54;;;;;;;;;;;;;;;5.23;73.52;102887.66;4871592;29;4500;-87
2022/12/03 03:18:21;;;;;;;;;;;;;;;5.23;73.56;102887.66;4872191;29;4594;-86
2022/12/03 03:20:48;;;;;;;;;;;;;;;5.21;73.71;102880.75;4871280;29;4504;-85
2022/12/03 03:23:14;;;;;;;;;;;;;;;5.25;73.45;102884.84;4870957;29;4531;-86
2022/12/03 03:25:41;;;;;;;;;;;;;;;5.29;73.39;102880.09;4854828;29;4640;-87
2022/12/03 03:28:08;;;;;;;;;;;;;;;5.25;73.44;102879.50;4874238;29;4441;-85
2022/12/03 03:30:34;;;;;;;;;;;;;;;5.23;73.67;102874.31;4857009;29;4448;-84
2022/12/03 03:33:01;;;;;;;;;;;;;;;5.27;73.43;102877.56;4853975;29;4440;-88
2022/12/03 03:35:27;;;;;;;;;;;;;;;5.21;73.98;102876.25;4856413;29;3666;-88
2022/12/03 03:37:54;;;;;;;;;;;;;;;5.24;73.51;102867.97;4858078;29;4510;-86
2022/12/03 03:40:21;;;;;;;;;;;;;;;5.18;73.78;102871.16;4854988;29;4523;-86
2022/12/03 03:42:47;;;;;;;;;;;;;;;5.27;73.65;102866.03;4876494;29;4584;-86
2022/12/03 03:45:14;;;;;;;;;;;;;;;5.33;73.31;102868.19;4870228;29;4557;-86
2022/12/03 03:47:40;;;;;;;;;;;;;;;5.29;73.25;102867.56;4872512;29;4431;-86
2022/12/03 03:50:07;;;;;;;;;;;;;;;5.36;73.17;102873.28;4874740;29;4560;-84
2022/12/03 03:52:33;;;;;;;;;;;;;;;5.30;73.47;102863.94;4877346;29;4607;-86
2022/12/03 03:55:00;;;;;;;;;;;;;;;5.21;73.41;102860.22;4876088;29;4575;-85
2022/12/03 03:57:27;;;;;;;;;;;;;;;5.21;73.62;102862.91;4857860;29;4502;-87
2022/12/03 03:59:53;;;;;;;;;;;;;;;5.23;73.60;102849.38;4878409;29;4511;-87
2022/12/03 04:02:20;;;;;;;;;;;;;;;5.29;73.45;102851.53;4875234;29;4419;-85
2022/12/03 04:04:46;;;;;;;;;;;;;;;5.23;73.63;102846.72;4875521;29;4699;-85
2022/12/03 04:07:13;;;;;;;;;;;;;;;5.27;73.44;102850.84;4875958;29;4539;-87
2022/12/03 04:09:39;;;;;;;;;;;;;;;5.15;73.87;102847.38;4874546;29;4575;-87
2022/12/03 04:14:50;;;;;;;;;;;;;;;5.14;74.00;102840.31;4876001;29;4352;-86
2022/12/03 04:17:17;;;;;;;;;;;;;;;5.23;73.64;102836.91;4871588;29;4485;-86
2022/12/03 04:19:43;;;;;;;;;;;;;;;5.34;73.37;102851.16;4874650;29;3800;-86
2022/12/03 04:28:47;;;;;;;;;;;;;;;5.32;73.19;102843.28;4876827;29;4451;-86
2022/12/03 04:30:26;;;;;;;;;;;;;;;5.24;73.37;102838.59;4871278;29;4464;-85
2022/12/03 04:35:42;;;;;;;;;;;;;;;5.15;73.93;102841.19;4872614;29;4450;-85
2022/12/03 04:38:09;;;;;;;;;;;;;;;5.19;73.76;102837.28;4862647;29;4223;-86
2022/12/03 04:43:20;;;;;;;;;;;;;;;5.13;74.12;102827.09;4874656;29;4646;-87
2022/12/03 04:45:47;;;;;;;;;;;;;;;5.17;73.97;102823.19;4874976;29;4597;-86
2022/12/03 04:48:13;;;;;;;;;;;;;;;5.18;73.83;102823.06;4876124;29;4543;-87
2022/12/03 04:50:40;;;;;;;;;;;;;;;5.12;73.83;102828.94;4856724;29;4432;-87
2022/12/03 04:53:06;;;;;;;;;;;;;;;5.18;73.81;102827.56;4878183;29;4522;-87
2022/12/03 04:55:33;;;;;;;;;;;;;;;5.18;73.63;102824.91;4872429;29;4470;-87
2022/12/03 04:57:59;;;;;;;;;;;;;;;5.17;73.87;102828.53;4859327;29;4486;-87
2022/12/03 05:00:26;;;;;;;;;;;;;;;5.18;73.73;102828.41;4855492;29;4532;-86
2022/12/03 05:02:52;;;;;;;;;;;;;;;5.22;73.60;102821.84;4874045;29;4473;-85
2022/12/03 05:05:19;;;;;;;;;;;;;;;5.21;73.58;102820.16;4878950;29;4729;-87
2022/12/03 05:07:45;;;;;;;;;;;;;;;5.15;73.81;102823.34;4873970;29;4465;-85
2022/12/03 05:10:12;;;;;;;;;;;;;;;5.15;73.80;102819.81;4871082;29;4519;-85
2022/12/03 05:12:39;;;;;;;;;;;;;;;5.16;73.68;102818.84;4876248;29;4599;-87
2022/12/03 05:15:05;;;;;;;;;;;;;;;5.13;73.83;102819.94;4874583;29;4564;-87
2022/12/03 05:17:32;;;;;;;;;;;;;;;5.15;73.91;102827.84;4875622;29;4424;-86
2022/12/03 05:22:43;;;;;;;;;;;;;;;5.04;74.31;102822.53;4872114;29;4522;-86
2022/12/03 05:25:10;;;;;;;;;;;;;;;5.05;74.28;102825.06;4874732;29;4523;-86
2022/12/03 05:27:36;;;;;;;;;;;;;;;5.13;73.93;102821.75;4872874;29;4601;-86
2022/12/03 05:30:03;;;;;;;;;;;;;;;5.15;73.91;102823.34;4867664;29;4515;-86
2022/12/03 05:32:29;;;;;;;;;;;;;;;5.14;73.97;102823.44;4875003;29;4495;-86
2022/12/03 05:34:56;;;;;;;;;;;;;;;5.05;74.03;102817.06;4871196;29;4484;-86
2022/12/03 05:37:23;;;;;;;;;;;;;;;4.97;74.51;102820.38;4873651;29;3768;-86
2022/12/03 05:39:49;;;;;;;;;;;;;;;5.01;74.34;102819.13;4873100;29;4505;-86
2022/12/03 05:45:00;;;;;;;;;;;;;;;5.04;74.14;102811.84;4872628;29;4332;-86
2022/12/03 05:47:27;;;;;;;;;;;;;;;5.13;73.95;102808.41;4874616;29;4310;-86
2022/12/03 05:49:54;;;;;;;;;;;;;;;5.05;74.17;102802.84;4872346;29;3733;-87
2022/12/03 05:52:20;;;;;;;;;;;;;;;5.06;74.16;102796.53;4873149;29;4441;-86
2022/12/03 05:54:47;;;;;;;;;;;;;;;5.05;74.35;102794.84;4873724;29;3777;-86
2022/12/03 05:57:13;;;;;;;;;;;;;;;5.05;74.27;102805.53;4871856;29;4492;-85
2022/12/03 05:59:40;;;;;;;;;;;;;;;5.12;74.01;102804.91;4874285;29;4623;-86
2022/12/03 06:02:07;;;;;;;;;;;;;;;5.08;74.17;102797.25;4860116;29;4684;-86
2022/12/03 06:04:35;;;;;;;;;;;;;;;5.04;74.33;102794.00;4873210;29;4483;-86
2022/12/03 06:07:01;;;;;;;;;;;;;;;5.03;74.19;102789.66;4858815;29;4446;-86
2022/12/03 06:09:28;;;;;;;;;;;;;;;5.11;73.99;102786.31;4870712;29;4249;-85
2022/12/03 06:11:54;;;;;;;;;;;;;;;5.10;73.99;102781.97;4873481;29;4384;-86
2022/12/03 06:14:21;;;;;;;;;;;;;;;5.01;74.31;102792.44;4861995;29;4608;-86
2022/12/03 06:16:47;;;;;;;;;;;;;;;5.10;73.96;102792.63;4871224;29;4632;-86
2022/12/03 06:19:14;;;;;;;;;;;;;;;5.06;74.05;102788.50;4872554;29;4468;-87
2022/12/03 06:21:41;;;;;;;;;;;;;;;5.10;73.96;102796.16;4872960;29;4664;-88
2022/12/03 06:24:07;;;;;;;;;;;;;;;5.18;73.85;102790.19;4873478;29;4742;-87
2022/12/03 06:26:34;;;;;;;;;;;;;;;5.10;73.97;102798.81;4870941;29;4444;-85
2022/12/03 06:29:01;;;;;;;;;;;;;;;5.07;74.08;102791.06;4876141;29;4480;-86
2022/12/03 06:31:28;;;;;;;;;;;;;;;5.09;73.95;102802.47;4871262;29;4555;-85
2022/12/03 06:33:54;;;;;;;;;;;;;;;5.07;74.22;102800.91;4871120;29;4467;-87
2022/12/03 06:36:21;;;;;;;;;;;;;;;5.13;73.74;102798.56;4855407;29;4506;-88
2022/12/03 06:38:47;;;;;;;;;;;;;;;5.06;74.13;102792.06;4870325;29;4421;-87
2022/12/03 06:41:14;;;;;;;;;;;;;;;5.14;73.96;102789.56;4871813;29;4504;-85
2022/12/03 06:43:41;;;;;;;;;;;;;;;5.11;74.02;102794.31;4860233;29;4566;-87
2022/12/03 06:46:07;;;;;;;;;;;;;;;5.17;73.64;102791.13;4870829;29;4500;-84
2022/12/03 06:48:34;;;;;;;;;;;;;;;5.18;73.66;102792.84;4874150;29;4563;-87
2022/12/03 06:51:01;;;;;;;;;;;;;;;5.18;73.61;102788.34;4873703;29;4523;-87
2022/12/03 06:53:27;;;;;;;;;;;;;;;5.19;73.59;102786.53;4872191;29;4618;-87
2022/12/03 06:55:54;;;;;;;;;;;;;;;5.17;73.57;102794.66;4875295;29;4441;-87
2022/12/03 06:58:20;;;;;;;;;;;;;;;5.20;73.43;102783.69;4870591;29;4492;-85
2022/12/03 07:00:47;;;;;;;;;;;;;;;5.10;73.99;102790.81;4871163;29;4564;-85
2022/12/03 07:03:13;;;;;;;;;;;;;;;5.19;73.73;102789.19;4857235;29;4566;-85
2022/12/03 07:05:40;;;;;;;;;;;;;;;5.12;73.89;102788.88;4868454;29;4630;-87
2022/12/03 07:08:07;;;;;;;;;;;;;;;5.09;73.99;102791.81;4870463;29;4598;-87
2022/12/03 07:10:33;;;;;;;;;;;;;;;5.04;74.21;102788.66;4864449;29;4633;-86
2022/12/03 07:13:00;;;;;;;;;;;;;;;5.09;74.09;102788.25;4859000;29;4549;-86
2022/12/03 07:15:27;;;;;;;;;;;;;;;5.08;74.29;102791.91;4871623;29;4431;-87
2022/12/03 07:17:53;;;;;;;;;;;;;;;5.08;74.12;102789.25;4872979;29;4538;-86
2022/12/03 07:20:20;;;;;;;;;;;;;;;5.03;74.25;102792.31;4856286;29;4615;-87
2022/12/03 07:22:46;;;;;;;;;;;;;;;5.07;74.25;102784.88;4869882;29;5047;-86
2022/12/03 07:25:13;;;;;;;;;;;;;;;5.16;73.76;102787.63;4880814;29;4615;-87
2022/12/03 07:27:39;;;;;;;;;;;;;;;5.10;73.98;102785.47;4890941;29;4504;-87
2022/12/03 07:30:06;;;;;;;;;;;;;;;5.10;73.92;102781.97;4886801;29;4628;-86
2022/12/03 07:32:32;;;;;;;;;;;;;;;5.13;73.92;102784.38;4875676;29;4613;-86
2022/12/03 07:34:59;;;;;;;;;;;;;;;4.96;74.39;102775.09;4890596;29;4638;-86
2022/12/03 07:37:26;;;;;;;;;;;;;;;5.03;74.26;102776.28;4886189;29;4571;-86
2022/12/03 07:39:53;;;;;;;;;;;;;;;5.04;74.41;102774.47;4889051;29;4684;-86
2022/12/03 07:42:19;;;;;;;;;;;;;;;4.99;74.44;102765.00;4872796;29;4683;-86
2022/12/03 07:44:46;;;;;;;;;;;;;;;5.01;74.27;102767.56;4886788;29;4573;-85
2022/12/03 07:47:12;;;;;;;;;;;;;;;5.04;74.11;102763.78;4889322;29;4597;-85
2022/12/03 07:49:39;;;;;;;;;;;;;;;5.00;74.26;102764.03;4885326;29;4564;-87
2022/12/03 07:52:06;;;;;;;;;;;;;;;5.08;74.00;102765.19;4887601;29;4584;-87
2022/12/03 07:54:32;;;;;;;;;;;;;;;4.97;74.57;102763.44;4870454;29;4652;-84
2022/12/03 07:56:59;;;;;;;;;;;;;;;4.98;74.32;102765.97;4887856;29;4485;-87
2022/12/03 07:59:25;;;;;;;;;;;;;;;5.00;74.33;102757.84;4887939;29;4695;-86
2022/12/03 08:01:52;;;;;;;;;;;;;;;4.98;74.35;102762.47;4886128;29;4574;-87
2022/12/03 08:04:20;;;;;;;;;;;;;;;4.96;74.44;102761.75;4875353;29;4586;-87
2022/12/03 08:06:46;;;;;;;;;;;;;;;5.05;74.24;102765.47;4870245;29;4555;-87
2022/12/03 08:09:12;;;;;;;;;;;;;;;5.06;74.16;102776.03;4888207;29;4477;-87
2022/12/03 08:11:39;;;;;;;;;;;;;;;5.03;74.22;102768.28;4874885;29;4604;-85
2022/12/03 08:14:06;;;;;;;;;;;;;;;4.94;74.42;102764.56;4872675;29;4726;-86
2022/12/03 08:16:32;;;;;;;;;;;;;;;4.97;74.38;102763.44;4873401;29;4534;-87
2022/12/03 08:18:59;;;;;;;;;;;;;;;4.98;74.60;102760.63;4885017;29;4733;-85
2022/12/03 08:21:25;;;;;;;;;;;;;;;4.96;74.50;102767.09;4890272;29;4853;-87
2022/12/03 08:23:52;;;;;;;;;;;;;;;4.96;74.45;102761.75;4931756;23;4695;-83
2022/12/03 08:26:18;;;;;;;;;;;;;;;4.96;74.44;102765.25;4915897;23;4736;-84
2022/12/03 08:28:45;;;;;;;;;;;;;;;4.96;74.46;102756.41;4915907;29;4772;-84
2022/12/03 08:31:12;;;;;;;;;;;;;;;4.94;74.41;102756.53;4891909;29;4838;-84
2022/12/03 08:33:38;;;;;;;;;;;;;;;4.92;74.73;102762.97;4912152;29;4718;-84
2022/12/03 08:36:05;;;;;;;;;;;;;;;4.93;74.48;102768.19;4904405;29;4771;-84
2022/12/03 08:38:32;;;;;;;;;;;;;;;4.95;74.57;102766.25;4887132;29;3693;-83
2022/12/03 08:41:01;;;;;;;;;;;;;;;4.87;74.67;102768.69;4888406;29;4690;-84
2022/12/03 08:43:28;;;;;;;;;;;;;;;4.91;74.69;102771.94;4898446;29;4786;-85
2022/12/03 08:45:54;;;;;;;;;;;;;;;4.91;74.74;102766.63;4888338;29;4665;-83
2022/12/03 08:48:21;;;;;;;;;;;;;;;4.98;74.51;102770.47;4896644;29;4600;-82
2022/12/03 08:50:47;;;;;;;;;;;;;;;4.99;74.49;102775.69;4893624;29;4615;-82
2022/12/03 08:53:14;;;;;;;;;;;;;;;4.88;74.84;102770.41;4902755;29;4653;-83
2022/12/03 08:55:40;;;;;;;;;;;;;;;4.90;74.79;102764.94;4911753;29;4425;-83
2022/12/03 08:58:07;;;;;;;;;;;;;;;4.90;74.75;102770.28;4889688;29;4677;-82
2022/12/03 09:00:33;;;;;;;;;;;;;;;4.96;74.45;102772.41;4891220;29;4600;-86
2022/12/03 09:03:00;;;;;;;;;;;;;;;4.98;74.36;102765.13;4912571;29;4631;-86
2022/12/03 09:05:27;;;;;;;;;;;;;;;5.03;74.11;102764.72;4904060;29;5291;-86
2022/12/03 09:07:53;;;;;;;;;;;;;;;5.01;74.15;102762.22;4908140;29;4149;-86
2022/12/03 09:10:20;;;;;;;;;;;;;;;5.05;73.99;102760.97;4881870;29;3983;-85
2022/12/03 09:12:46;;;;;;;;;;;;;;;4.99;74.26;102761.47;4907639;29;3889;-85
2022/12/03 09:15:13;;;;;;;;;;;;;;;4.99;74.26;102765.00;4894776;29;4142;-85
2022/12/03 09:17:39;;;;;;;;;;;;;;;4.97;74.39;102760.75;4900297;29;4007;-85
2022/12/03 09:20:06;;;;;;;;;;;;;;;5.04;74.20;102755.75;4885201;29;4078;-85
2022/12/03 09:22:32;;;;;;;;;;;;;;;5.00;74.36;102756.03;4890167;29;4025;-85
2022/12/03 09:24:59;;;;;;;;;;;;;;;4.96;74.47;102751.91;4887968;29;4067;-85
2022/12/03 09:27:25;;;;;;;;;;;;;;;5.09;74.05;102758.88;4881827;29;4537;-85
2022/12/03 09:29:52;;;;;;;;;;;;;;;5.05;74.16;102762.78;4880878;29;4939;-85
2022/12/03 09:32:18;;;;;;;;;;;;;;;5.01;74.30;102764.88;4882420;29;4609;-85
2022/12/03 09:34:45;;;;;;;;;;;;;;;5.07;73.99;102759.03;4882934;29;4731;-84
2022/12/03 09:37:12;;;;;;;;;;;;;;;5.06;73.90;102757.34;4876698;29;4653;-84
2022/12/03 09:39:38;;;;;;;;;;;;;;;5.08;74.01;102754.50;4886149;29;4612;-84
2022/12/03 09:42:05;;;;;;;;;;;;;;;4.99;74.26;102753.47;4880140;29;4600;-85
2022/12/03 09:44:31;;;;;;;;;;;;;;;5.07;74.05;102759.03;4884180;29;4559;-84
2022/12/03 09:46:58;;;;;;;;;;;;;;;5.11;73.87;102749.75;4861751;29;4587;-84
2022/12/03 09:49:25;;;;;;;;;;;;;;;5.07;73.94;102745.66;4879038;29;4514;-85
2022/12/03 09:51:51;;;;;;;;;;;;;;;5.05;73.99;102752.94;4883651;29;4479;-85
2022/12/03 09:54:18;;;;;;;;;;;;;;;5.08;73.94;102751.84;4863907;29;4637;-84
2022/12/03 09:56:44;;;;;;;;;;;;;;;5.06;74.05;102752.00;4883415;29;4675;-85
2022/12/03 09:59:11;;;;;;;;;;;;;;;5.07;73.64;102747.50;4881028;29;4637;-85
2022/12/03 10:01:37;;;;;;;;;;;;;;;5.09;73.96;102742.84;4878541;29;5006;-85
2022/12/03 10:04:04;;;;;;;;;;;;;;;5.10;73.93;102740.06;4882271;29;4649;-85
2022/12/03 10:06:31;;;;;;;;;;;;;;;5.13;73.76;102736.28;4877697;29;4546;-85
2022/12/03 10:08:58;;;;;;;;;;;;;;;5.06;74.00;102735.97;4883040;29;4787;-84
2022/12/03 10:11:25;;;;;;;;;;;;;;;5.11;73.92;102738.22;4879512;29;4626;-84
2022/12/03 10:13:52;;;;;;;;;;;;;;;5.02;74.22;102739.84;4869957;29;4585;-85
2022/12/03 10:16:19;;;;;;;;;;;;;;;5.05;74.08;102738.75;4866763;29;4538;-84
2022/12/03 10:18:46;;;;;;;;;;;;;;;5.01;74.21;102733.66;4851270;29;4693;-85
2022/12/03 10:21:13;;;;;;;;;;;;;;;5.07;74.13;102731.47;4869652;29;4565;-84
2022/12/03 10:23:39;;;;;;;;;;;;;;;5.09;73.98;102727.69;4880475;29;4659;-85
2022/12/03 10:26:06;;;;;;;;;;;;;;;5.09;74.05;102732.16;4881125;29;4837;-85
2022/12/03 10:28:32;;;;;;;;;;;;;;;4.97;74.65;102731.38;4875761;29;4975;-85
2022/12/03 10:30:59;;;;;;;;;;;;;;;5.00;74.39;102723.97;4877108;29;4294;-84
2022/12/03 10:33:25;;;;;;;;;;;;;;;5.05;74.12;102723.56;4882345;29;4173;-85
2022/12/03 10:35:52;;;;;;;;;;;;;;;5.07;73.83;102724.28;4865966;29;4045;-85
2022/12/03 10:38:18;;;;;;;;;;;;;;;4.98;74.31;102720.56;4875889;29;4116;-85
2022/12/03 10:40:45;;;;;;;;;;;;;;;5.00;74.25;102720.47;4866577;29;4413;-84
2022/12/03 10:43:11;;;;;;;;;;;;;;;4.98;74.27;102717.06;4879304;29;4072;-84
2022/12/03 10:45:38;;;;;;;;;;;;;;;4.94;74.52;102724.50;4871710;29;4183;-85
2022/12/03 10:48:04;;;;;;;;;;;;;;;4.98;74.30;102723.25;4855696;29;3891;-85
2022/12/03 10:50:31;;;;;;;;;;;;;;;4.97;74.31;102721.56;4860675;29;4665;-84
2022/12/03 10:52:58;;;;;;;;;;;;;;;5.02;74.10;102718.50;4868480;29;4687;-85
2022/12/03 10:55:24;;;;;;;;;;;;;;;4.98;74.37;102719.75;4863180;29;4649;-85
2022/12/03 10:57:51;;;;;;;;;;;;;;;4.95;74.26;102720.00;4861303;29;4657;-85
2022/12/03 11:00:17;;;;;;;;;;;;;;;4.99;74.08;102714.25;4864381;29;4800;-84
2022/12/03 11:03:26;;;;;;;;;;;;;;;4.97;74.31;102712.69;5141896;27;4448;-85
2022/12/03 11:05:54;;;;;;;;;;;;;;;4.98;74.24;102712.56;5110443;28;4573;-90
2022/12/03 11:08:20;;;;;;;;;;;;;;;4.93;74.45;102705.91;5108125;28;4604;-85
2022/12/03 11:10:47;;;;;;;;;;;;;;;4.98;73.96;102707.22;5108023;28;4669;-85
2022/12/03 11:13:13;;;;;;;;;;;;;;;5.04;74.21;102710.34;5099669;28;4722;-85
2022/12/03 11:15:40;;;;;;;;;;;;;;;5.00;74.34;102705.28;5096862;28;4667;-86
2022/12/03 11:18:06;;;;;;;;;;;;;;;5.05;73.91;102704.03;5109471;28;4728;-86
2022/12/03 11:20:33;;;;;;;;;;;;;;;4.96;74.35;102705.66;5113437;28;4626;-86
2022/12/03 11:22:59;;;;;;;;;;;;;;;5.00;74.25;102702.59;5100867;28;4688;-86
2022/12/03 11:25:26;;;;;;;;;;;;;;;5.00;74.26;102701.78;5109400;28;4745;-86
2022/12/03 11:27:52;;;;;;;;;;;;;;;4.92;74.42;102701.56;5109217;27;4685;-86
2022/12/03 11:30:19;;;;;;;;;;;;;;;4.97;74.25;102694.88;5095768;28;4737;-86
2022/12/03 11:32:45;;;;;;;;;;;;;;;4.95;74.16;102701.31;5113147;28;4742;-85
2022/12/03 11:35:12;;;;;;;;;;;;;;;4.92;74.51;102696.22;5092705;28;4610;-86
2022/12/03 11:37:39;;;;;;;;;;;;;;;4.90;74.54;102692.84;5111178;28;4569;-86
2022/12/03 11:40:05;;;;;;;;;;;;;;;4.87;74.63;102687.75;5097936;28;4638;-86
2022/12/03 11:42:32;;;;;;;;;;;;;;;5.01;74.23;102695.44;5089347;28;4554;-86
2022/12/03 11:44:58;;;;;;;;;;;;;;;4.99;74.22;102692.03;5110537;28;4476;-85
2022/12/03 11:47:25;;;;;;;;;;;;;;;4.97;74.19;102686.84;5093329;28;3794;-85
2022/12/03 11:49:51;;;;;;;;;;;;;;;4.89;74.52;102685.81;5124664;27;4622;-84
2022/12/03 11:52:18;;;;;;;;;;;;;;;4.91;74.49;102686.50;5105775;27;4500;-85
2022/12/03 11:54:44;;;;;;;;;;;;;;;4.90;74.57;102685.66;5090468;28;4614;-84
2022/12/03 11:57:11;;;;;;;;;;;;;;;4.95;74.29;102687.94;5122481;27;4520;-84
2022/12/03 11:59:37;;;;;;;;;;;;;;;4.93;74.59;102690.75;5106781;27;4650;-85
2022/12/03 12:02:04;;;;;;;;;;;;;;;4.92;74.51;102674.88;5075254;27;4495;-85
2022/12/03 12:04:30;;;;;;;;;;;;;;;4.91;74.41;102678.50;5101542;27;3763;-85
2022/12/03 12:06:57;;;;;;;;;;;;;;;4.94;74.29;102675.56;5102414;27;4537;-86
2022/12/03 12:09:23;;;;;;;;;;;;;;;4.92;74.27;102675.69;5114568;28;4583;-86
2022/12/03 12:11:50;;;;;;;;;;;;;;;4.93;74.29;102682.72;5122927;27;4670;-85
2022/12/03 12:14:17;;;;;;;;;;;;;;;4.98;74.34;102675.19;5098060;28;4543;-85
2022/12/03 12:16:44;;;;;;;;;;;;;;;4.93;74.31;102679.22;5095451;28;4629;-85
2022/12/03 12:19:11;;;;;;;;;;;;;;;5.01;74.10;102684.75;5093411;27;4671;-85
2022/12/03 12:21:37;;;;;;;;;;;;;;;4.95;74.10;102679.94;5078040;28;4399;-84
2022/12/03 12:24:04;;;;;;;;;;;;;;;4.97;74.21;102668.16;5099499;28;3766;-85
2022/12/03 12:26:30;;;;;;;;;;;;;;;4.97;74.30;102672.63;5090491;28;4594;-85
2022/12/03 12:28:57;;;;;;;;;;;;;;;4.49;72.48;102670.47;5095958;28;4589;-81
2022/12/03 12:31:24;;;;;;;;;;;;;;;4.63;74.66;102659.47;5093916;28;4660;-78
2022/12/03 12:33:50;;;;;;;;;;;;;;;4.65;74.33;102668.22;5092952;28;5070;-80
2022/12/03 12:36:17;;;;;;;;;;;;;;;4.68;74.44;102667.97;5096765;28;5153;-77
2022/12/03 12:38:43;;;;;;;;;;;;;;;4.69;74.34;102666.97;5091792;28;4602;-79
2022/12/03 12:41:10;;;;;;;;;;;;;;;4.68;75.01;102661.78;5097441;28;4950;-76
2022/12/03 12:43:38;;;;;;;;;;;;;;;4.69;74.75;102663.47;5094028;28;4936;-78
2022/12/03 12:46:04;;;;;;;;;;;;;;;4.67;74.87;102663.56;5088569;27;4700;-76
2022/12/03 12:48:31;;;;;;;;;;;;;;;4.66;74.96;102659.22;5084521;28;4435;-79
2022/12/03 12:50:58;;;;;;;;;;;;;;;4.66;75.11;102648.53;5090266;28;4716;-76
2022/12/03 12:53:25;;;;;;;;;;;;;;;4.67;75.02;102652.06;5094117;28;4539;-79
2022/12/03 12:55:51;;;;;;;;;;;;;;;4.67;75.10;102650.22;5095678;28;4583;-78
2022/12/03 12:58:18;;;;;;;;;;;;;;;4.64;75.11;102647.81;5075050;28;4711;-77
2022/12/03 13:00:44;;;;;;;;;;;;;;;4.68;75.38;102648.44;5095998;28;4581;-78
2022/12/03 13:03:13;;;;;;;;;;;;;;;4.66;75.18;102647.72;5085234;27;4609;-76
2022/12/03 13:05:39;;;;;;;;;;;;;;;4.64;75.25;102644.31;5086918;27;4395;-77
2022/12/03 13:08:06;;;;;;;;;;;;;;;4.64;75.17;102641.63;5088400;27;4580;-77
2022/12/03 13:10:32;;;;;;;;;;;;;;;4.64;75.20;102646.97;5092435;27;4945;-77
2022/12/03 13:13:01;;;;;;;;;;;;;;;4.65;75.30;102644.19;5087407;27;4718;-78
2022/12/03 13:15:27;;;;;;;;;;;;;;;4.62;75.46;102644.47;5089800;27;4638;-76